Time;durP1;ratioP1;P1;durP2;ratioP2;P2;SDS_P1;SDS_P2;PMS_P1;PMS_P2;Temp;Humidity;BMP_temperature;BMP_pressure;BME280_temperature;BME280_humidity;BME280_pressure;Samples;Min_cycle;Max_cycle;Signal;HPM_P1;HPM_P2
2022/06/09 00:00:13;;;;;;;16.58;3.85;;;;;;;;;;5157518;27;20057;-77
2022/06/09 00:02:41;;;;;;;16.65;3.58;;;;;;;;;;5158278;27;20452;-75
2022/06/09 00:05:09;;;;;;;26.52;4.07;;;;;;;;;;5128970;27;20051;-77
2022/06/09 00:07:36;;;;;;;14.27;4.05;;;;;;;;;;5161986;27;20051;-77
2022/06/09 00:10:08;;;;;;;17.73;4.10;;;;;;;;;;5135060;27;20061;-76
2022/06/09 00:12:35;;;;;;;18.05;3.80;;;;;;;;;;5135829;27;20552;-76
2022/06/09 00:15:04;;;;;;;20.35;3.65;;;;;;;;;;5156825;27;20982;-77
2022/06/09 00:17:30;;;;;;;15.02;3.80;;;;;;;;;;5153116;27;20058;-76
2022/06/09 00:19:57;;;;;;;15.95;3.40;;;;;;;;;;5126670;27;20138;-76
2022/06/09 00:22:23;;;;;;;18.63;3.90;;;;;;;;;;5155690;27;20065;-77
2022/06/09 00:24:50;;;;;;;18.40;4.63;;;;;;;;;;5135132;27;20053;-77
2022/06/09 00:27:16;;;;;;;18.70;3.42;;;;;;;;;;5159195;27;20047;-76
2022/06/09 00:29:42;;;;;;;13.95;3.67;;;;;;;;;;5151242;27;20061;-76
2022/06/09 00:32:08;;;;;;;17.73;3.90;;;;;;;;;;5159723;27;20516;-76
2022/06/09 00:34:35;;;;;;;18.15;3.20;;;;;;;;;;5163168;27;20050;-77
2022/06/09 00:37:01;;;;;;;12.60;3.53;;;;;;;;;;5135049;27;20706;-77
2022/06/09 00:39:28;;;;;;;21.38;3.50;;;;;;;;;;5159627;27;20050;-75
2022/06/09 00:41:55;;;;;;;22.30;3.90;;;;;;;;;;5165089;27;20061;-76
2022/06/09 00:44:26;;;;;;;14.73;3.35;;;;;;;;;;5132117;27;20069;-77
2022/06/09 00:46:55;;;;;;;19.38;3.47;;;;;;;;;;5140615;27;21239;-76
2022/06/09 00:49:24;;;;;;;18.15;3.72;;;;;;;;;;5150778;27;20583;-76
2022/06/09 00:51:54;;;;;;;18.35;4.72;;;;;;;;;;5152059;27;20108;-77
2022/06/09 00:54:50;;;;;;;18.77;4.40;;;;;;;;;;5126032;27;20303;-76
2022/06/09 00:57:19;;;;;;;20.85;4.50;;;;;;;;;;5130125;27;20105;-76
2022/06/09 00:59:47;;;;;;;19.20;3.92;;;;;;;;;;5142235;27;20142;-77
2022/06/09 01:02:15;;;;;;;22.35;4.82;;;;;;;;;;5127064;27;20061;-74
2022/06/09 01:04:43;;;;;;;16.77;4.50;;;;;;;;;;5144967;27;20059;-77
2022/06/09 01:07:11;;;;;;;25.25;5.43;;;;;;;;;;5142484;27;20251;-76
2022/06/09 01:09:38;;;;;;;18.08;4.45;;;;;;;;;;5137137;27;20075;-75
2022/06/09 01:12:20;;;;;;;24.98;5.05;;;;;;;;;;5159121;27;20131;-76
2022/06/09 01:14:47;;;;;;;18.70;4.60;;;;;;;;;;5147776;27;20151;-76
2022/06/09 01:17:20;;;;;;;22.63;4.60;;;;;;;;;;5149075;27;20516;-77
2022/06/09 01:20:00;;;;;;;19.05;4.57;;;;;;;;;;5136349;27;20055;-75
2022/06/09 01:22:45;;;;;;;19.83;4.57;;;;;;;;;;5135518;27;20488;-77
2022/06/09 01:25:14;;;;;;;23.90;5.15;;;;;;;;;;5137111;27;20099;-76
2022/06/09 01:27:56;;;;;;;21.88;4.57;;;;;;;;;;5154792;27;20047;-75
2022/06/09 01:30:49;;;;;;;18.20;4.93;;;;;;;;;;5134558;27;20171;-75
2022/06/09 01:33:26;;;;;;;19.67;4.63;;;;;;;;;;5127524;27;20057;-76
2022/06/09 01:36:08;;;;;;;20.42;5.03;;;;;;;;;;5151241;27;20051;-76
2022/06/09 01:38:45;;;;;;;22.15;4.68;;;;;;;;;;5145757;27;21412;-75
2022/06/09 01:41:12;;;;;;;19.42;4.68;;;;;;;;;;5146530;27;20143;-75
2022/06/09 01:43:38;;;;;;;21.42;4.70;;;;;;;;;;5134654;27;20059;-76
2022/06/09 01:46:10;;;;;;;22.45;4.80;;;;;;;;;;5141715;27;20051;-75
2022/06/09 01:48:38;;;;;;;18.30;5.22;;;;;;;;;;5132674;27;20055;-75
2022/06/09 01:51:12;;;;;;;16.95;4.45;;;;;;;;;;5121423;27;20051;-76
2022/06/09 01:53:59;;;;;;;16.65;4.55;;;;;;;;;;5133039;27;20062;-76
2022/06/09 01:56:30;;;;;;;22.88;5.15;;;;;;;;;;5146085;27;20548;-77
2022/06/09 01:59:00;;;;;;;21.60;5.18;;;;;;;;;;5142598;27;20134;-75
2022/06/09 02:01:29;;;;;;;21.35;4.47;;;;;;;;;;5136034;27;20146;-75
2022/06/09 02:03:57;;;;;;;25.23;4.82;;;;;;;;;;5133464;27;20059;-76
2022/06/09 02:06:24;;;;;;;14.65;4.85;;;;;;;;;;5138918;27;20153;-77
2022/06/09 02:08:50;;;;;;;12.80;4.90;;;;;;;;;;5124841;27;20476;-75
2022/06/09 02:11:17;;;;;;;20.55;5.15;;;;;;;;;;5147306;27;20612;-75
2022/06/09 02:13:46;;;;;;;19.35;5.30;;;;;;;;;;5130556;27;20150;-76
2022/06/09 02:16:14;;;;;;;15.60;4.95;;;;;;;;;;5141140;27;20282;-75
2022/06/09 02:18:42;;;;;;;16.88;5.15;;;;;;;;;;5124365;27;21746;-74
2022/06/09 02:21:11;;;;;;;17.58;5.22;;;;;;;;;;5125099;27;20556;-75
2022/06/09 02:23:38;;;;;;;16.90;5.10;;;;;;;;;;5142696;27;20093;-76
2022/06/09 02:26:05;;;;;;;16.88;5.05;;;;;;;;;;5131932;27;20059;-77
2022/06/09 02:28:31;;;;;;;16.75;5.13;;;;;;;;;;5126896;27;20051;-76
2022/06/09 02:30:58;;;;;;;15.05;5.43;;;;;;;;;;5120009;27;20047;-76
2022/06/09 02:33:24;;;;;;;19.70;6.18;;;;;;;;;;5129047;27;20077;-77
2022/06/09 02:35:51;;;;;;;18.67;6.40;;;;;;;;;;5148363;27;20059;-76
2022/06/09 02:38:19;;;;;;;20.83;6.10;;;;;;;;;;5152550;27;20055;-74
2022/06/09 02:40:45;;;;;;;19.13;6.32;;;;;;;;;;5153513;27;20047;-76
2022/06/09 02:43:13;;;;;;;18.25;6.50;;;;;;;;;;5146343;27;20137;-76
2022/06/09 02:45:40;;;;;;;20.65;6.95;;;;;;;;;;5151546;27;20055;-77
2022/06/09 02:48:07;;;;;;;21.65;7.18;;;;;;;;;;5151763;27;20139;-76
2022/06/09 02:50:34;;;;;;;23.13;7.63;;;;;;;;;;5167091;27;20054;-77
2022/06/09 02:53:01;;;;;;;21.17;6.60;;;;;;;;;;5135178;27;20539;-76
2022/06/09 02:55:28;;;;;;;20.27;7.00;;;;;;;;;;5129457;27;20055;-77
2022/06/09 02:57:55;;;;;;;19.85;6.32;;;;;;;;;;5142290;27;20499;-75
2022/06/09 03:00:21;;;;;;;17.08;6.00;;;;;;;;;;5148115;27;20918;-76
2022/06/09 03:02:55;;;;;;;15.25;6.35;;;;;;;;;;5148370;27;20059;-77
2022/06/09 03:05:21;;;;;;;22.15;6.07;;;;;;;;;;5161435;27;20296;-77
2022/06/09 03:07:48;;;;;;;15.48;5.88;;;;;;;;;;5146944;27;20059;-76
2022/06/09 03:10:14;;;;;;;17.73;6.30;;;;;;;;;;5144029;27;20059;-77
2022/06/09 03:12:42;;;;;;;18.25;6.75;;;;;;;;;;5158378;27;20051;-76
2022/06/09 03:15:10;;;;;;;17.13;6.20;;;;;;;;;;5142562;27;20047;-76
2022/06/09 03:17:37;;;;;;;19.05;6.65;;;;;;;;;;5146455;27;20078;-76
2022/06/09 03:20:05;;;;;;;15.07;6.35;;;;;;;;;;5147920;27;20075;-76
2022/06/09 03:22:32;;;;;;;20.90;7.55;;;;;;;;;;5146262;27;20420;-77
2022/06/09 03:24:59;;;;;;;12.68;5.47;;;;;;;;;;5136337;27;20467;-76
2022/06/09 03:27:26;;;;;;;20.58;6.72;;;;;;;;;;5161034;27;20066;-76
2022/06/09 03:29:52;;;;;;;16.83;5.70;;;;;;;;;;5130226;27;20831;-76
2022/06/09 03:32:18;;;;;;;12.63;5.53;;;;;;;;;;5138664;27;20131;-77
2022/06/09 03:34:44;;;;;;;15.05;5.97;;;;;;;;;;5164636;27;20411;-77
2022/06/09 03:37:11;;;;;;;15.23;5.45;;;;;;;;;;5128425;27;20078;-75
2022/06/09 03:39:38;;;;;;;14.05;6.28;;;;;;;;;;5151598;27;20090;-75
2022/06/09 03:42:05;;;;;;;20.98;5.68;;;;;;;;;;5136861;27;20221;-76
2022/06/09 03:44:31;;;;;;;16.50;5.65;;;;;;;;;;5165977;27;20100;-77
2022/06/09 03:46:57;;;;;;;20.38;5.72;;;;;;;;;;5157192;27;20044;-76
2022/06/09 03:49:23;;;;;;;13.82;5.55;;;;;;;;;;5165558;27;20170;-74
2022/06/09 03:51:50;;;;;;;17.95;5.55;;;;;;;;;;5162048;27;20771;-76
2022/06/09 03:54:16;;;;;;;16.38;5.90;;;;;;;;;;5157755;27;20553;-75
2022/06/09 03:56:43;;;;;;;20.33;6.05;;;;;;;;;;5139006;27;20051;-76
2022/06/09 03:59:12;;;;;;;18.92;5.57;;;;;;;;;;5133576;27;20134;-77
2022/06/09 04:01:39;;;;;;;10.65;5.20;;;;;;;;;;5145960;27;20061;-74
2022/06/09 04:04:05;;;;;;;13.43;5.40;;;;;;;;;;5153436;27;20141;-76
2022/06/09 04:06:33;;;;;;;17.80;5.95;;;;;;;;;;5134006;27;20178;-77
2022/06/09 04:08:59;;;;;;;11.88;5.38;;;;;;;;;;5148646;27;20154;-77
2022/06/09 04:11:26;;;;;;;11.25;5.47;;;;;;;;;;5154362;27;20045;-76
2022/06/09 04:13:52;;;;;;;13.07;5.15;;;;;;;;;;5129451;27;20469;-76
2022/06/09 04:16:22;;;;;;;13.98;4.80;;;;;;;;;;5162194;27;20137;-75
2022/06/09 04:18:49;;;;;;;14.38;5.05;;;;;;;;;;5129705;27;20532;-77
2022/06/09 04:21:16;;;;;;;14.50;4.40;;;;;;;;;;5160504;27;20496;-77
2022/06/09 04:23:43;;;;;;;11.43;3.75;;;;;;;;;;5127135;27;20055;-76
2022/06/09 04:26:12;;;;;;;10.85;3.90;;;;;;;;;;5153656;27;20065;-76
2022/06/09 04:28:38;;;;;;;16.10;3.90;;;;;;;;;;5132860;27;20180;-77
2022/06/09 04:31:05;;;;;;;14.57;4.47;;;;;;;;;;5159901;27;20047;-77
2022/06/09 04:33:31;;;;;;;13.10;4.60;;;;;;;;;;5165788;27;20051;-77
2022/06/09 04:35:57;;;;;;;10.63;3.70;;;;;;;;;;5137741;27;20483;-76
2022/06/09 04:38:24;;;;;;;11.82;4.05;;;;;;;;;;5135322;27;20142;-76
2022/06/09 04:40:50;;;;;;;11.18;4.35;;;;;;;;;;5140454;27;20059;-75
2022/06/09 04:43:16;;;;;;;17.30;4.38;;;;;;;;;;5144066;27;20054;-75
2022/06/09 04:45:43;;;;;;;11.32;4.07;;;;;;;;;;5168042;27;20051;-76
2022/06/09 04:48:10;;;;;;;15.02;4.30;;;;;;;;;;5151463;27;20046;-77
2022/06/09 04:50:36;;;;;;;15.05;4.43;;;;;;;;;;5151933;27;20059;-77
2022/06/09 04:53:03;;;;;;;19.80;4.38;;;;;;;;;;5132658;27;20901;-75
2022/06/09 04:55:30;;;;;;;15.18;3.83;;;;;;;;;;5155825;27;20063;-75
2022/06/09 04:57:58;;;;;;;9.18;3.50;;;;;;;;;;5127550;27;20412;-76
2022/06/09 05:00:26;;;;;;;14.10;3.80;;;;;;;;;;5135379;27;20082;-76
2022/06/09 05:02:54;;;;;;;16.08;3.97;;;;;;;;;;5125960;27;20055;-76
2022/06/09 05:05:22;;;;;;;11.63;3.90;;;;;;;;;;5140559;27;20051;-75
2022/06/09 05:07:48;;;;;;;8.43;3.40;;;;;;;;;;5131281;27;20498;-76
2022/06/09 05:10:15;;;;;;;13.88;3.70;;;;;;;;;;5143520;27;20051;-75
2022/06/09 05:12:42;;;;;;;12.85;3.72;;;;;;;;;;5131690;27;20530;-76
2022/06/09 05:15:13;;;;;;;8.90;3.50;;;;;;;;;;5146346;27;20149;-74
2022/06/09 05:17:39;;;;;;;9.52;3.45;;;;;;;;;;5140271;27;20531;-75
2022/06/09 05:20:06;;;;;;;9.32;3.25;;;;;;;;;;5138393;27;20051;-75
2022/06/09 05:22:32;;;;;;;8.77;2.85;;;;;;;;;;5128224;27;20061;-75
2022/06/09 05:24:59;;;;;;;13.23;3.50;;;;;;;;;;5127529;27;20089;-73
2022/06/09 05:27:25;;;;;;;12.40;3.38;;;;;;;;;;5161101;27;20050;-75
2022/06/09 05:29:52;;;;;;;10.85;3.63;;;;;;;;;;5158814;27;20051;-74
2022/06/09 05:32:19;;;;;;;12.70;3.28;;;;;;;;;;5158118;27;20050;-76
2022/06/09 05:34:45;;;;;;;12.27;3.35;;;;;;;;;;5132707;27;20098;-75
2022/06/09 05:37:11;;;;;;;11.05;3.05;;;;;;;;;;5135949;27;20065;-76
2022/06/09 05:45:13;;;;;;;7.78;2.63;;;;;;;;;;5132886;27;20055;-75
2022/06/09 05:47:39;;;;;;;9.82;3.17;;;;;;;;;;5146946;27;20055;-76
2022/06/09 05:50:07;;;;;;;12.30;3.17;;;;;;;;;;5164332;27;20078;-75
2022/06/09 05:52:33;;;;;;;8.25;2.80;;;;;;;;;;5162384;27;20054;-74
2022/06/09 05:55:00;;;;;;;10.07;2.53;;;;;;;;;;5131271;27;20568;-76
2022/06/09 05:57:27;;;;;;;7.60;2.17;;;;;;;;;;5163530;27;20147;-74
2022/06/09 05:59:54;;;;;;;8.23;2.10;;;;;;;;;;5152379;27;20053;-74
2022/06/09 06:02:21;;;;;;;9.88;2.13;;;;;;;;;;5135054;27;20085;-75
2022/06/09 06:04:48;;;;;;;7.70;2.10;;;;;;;;;;5135622;27;20057;-75
2022/06/09 06:07:14;;;;;;;6.53;1.90;;;;;;;;;;5144542;27;20564;-75
2022/06/09 06:09:41;;;;;;;8.52;1.58;;;;;;;;;;5128305;27;20051;-74
2022/06/09 06:12:08;;;;;;;11.93;2.28;;;;;;;;;;5140474;27;20534;-75
2022/06/09 06:14:35;;;;;;;7.07;1.98;;;;;;;;;;5136639;27;20515;-75
2022/06/09 06:17:01;;;;;;;8.88;2.10;;;;;;;;;;5146087;27;20050;-75
2022/06/09 06:19:28;;;;;;;5.40;1.85;;;;;;;;;;5142487;27;20138;-75
2022/06/09 06:21:54;;;;;;;8.07;1.95;;;;;;;;;;5144283;27;20409;-76
2022/06/09 06:24:23;;;;;;;7.18;1.92;;;;;;;;;;5134609;27;20054;-75
2022/06/09 06:26:49;;;;;;;5.95;1.73;;;;;;;;;;5132701;27;20584;-77
2022/06/09 06:29:19;;;;;;;9.25;1.88;;;;;;;;;;5136860;27;20050;-76
2022/06/09 06:31:46;;;;;;;8.07;2.38;;;;;;;;;;5133125;27;20051;-76
2022/06/09 06:34:12;;;;;;;6.90;1.90;;;;;;;;;;5149035;27;20062;-76
2022/06/09 06:36:39;;;;;;;6.78;2.20;;;;;;;;;;5138490;27;20104;-75
2022/06/09 06:39:05;;;;;;;6.53;1.75;;;;;;;;;;5156402;27;20047;-76
2022/06/09 06:41:32;;;;;;;8.30;2.05;;;;;;;;;;5149441;27;20752;-76
2022/06/09 06:43:58;;;;;;;8.60;1.80;;;;;;;;;;5138542;27;20151;-76
2022/06/09 06:46:26;;;;;;;6.82;1.95;;;;;;;;;;5144005;27;20103;-75
2022/06/09 06:48:55;;;;;;;9.63;2.40;;;;;;;;;;5123432;27;20863;-75
2022/06/09 06:51:22;;;;;;;6.97;2.05;;;;;;;;;;5140183;27;21088;-76
2022/06/09 06:53:49;;;;;;;7.45;1.80;;;;;;;;;;5157774;27;20057;-76
2022/06/09 06:56:15;;;;;;;7.55;1.98;;;;;;;;;;5145624;27;20245;-76
2022/06/09 06:58:42;;;;;;;6.13;1.90;;;;;;;;;;5133337;27;20557;-75
2022/06/09 07:01:09;;;;;;;6.88;1.98;;;;;;;;;;5159344;27;20130;-75
2022/06/09 07:03:35;;;;;;;6.57;2.10;;;;;;;;;;5138082;27;20592;-76
2022/06/09 07:06:03;;;;;;;6.63;2.15;;;;;;;;;;5137138;27;20059;-76
2022/06/09 07:08:30;;;;;;;6.22;1.90;;;;;;;;;;5135524;27;20062;-75
2022/06/09 07:10:56;;;;;;;5.28;1.65;;;;;;;;;;5134744;27;20528;-75
2022/06/09 07:13:23;;;;;;;6.68;1.90;;;;;;;;;;5136761;27;20433;-76
2022/06/09 07:15:49;;;;;;;5.45;2.00;;;;;;;;;;5156921;27;20055;-76
2022/06/09 07:18:16;;;;;;;6.75;1.88;;;;;;;;;;5150042;27;20051;-76
2022/06/09 07:20:43;;;;;;;6.18;2.05;;;;;;;;;;5135299;27;20422;-76
2022/06/09 07:23:09;;;;;;;9.82;1.75;;;;;;;;;;5146423;27;20141;-76
2022/06/09 07:25:36;;;;;;;6.18;2.28;;;;;;;;;;5130853;27;20502;-75
2022/06/09 07:28:03;;;;;;;5.60;2.20;;;;;;;;;;5144938;27;20050;-75
2022/06/09 07:30:29;;;;;;;5.65;2.00;;;;;;;;;;5159698;27;20090;-75
2022/06/09 07:32:56;;;;;;;10.10;2.80;;;;;;;;;;5152027;27;20082;-75
2022/06/09 07:35:24;;;;;;;7.60;2.20;;;;;;;;;;5162320;27;20065;-75
2022/06/09 07:37:51;;;;;;;8.57;2.10;;;;;;;;;;5158622;27;20082;-75
2022/06/09 07:40:17;;;;;;;7.85;2.20;;;;;;;;;;5152538;27;20139;-75
2022/06/09 07:42:44;;;;;;;7.10;2.28;;;;;;;;;;5144561;27;20046;-76
2022/06/09 07:45:11;;;;;;;5.75;2.03;;;;;;;;;;5156987;27;21724;-76
2022/06/09 07:47:38;;;;;;;9.43;2.45;;;;;;;;;;5162642;27;20155;-76
2022/06/09 07:50:05;;;;;;;7.25;2.50;;;;;;;;;;5144176;27;20080;-76
2022/06/09 07:52:39;;;;;;;8.35;3.05;;;;;;;;;;5149567;27;20051;-76
2022/06/09 07:55:06;;;;;;;6.65;2.38;;;;;;;;;;5165573;27;20057;-75
2022/06/09 07:57:32;;;;;;;9.05;2.30;;;;;;;;;;5141593;27;20172;-76
2022/06/09 07:59:59;;;;;;;6.40;2.42;;;;;;;;;;5152910;27;20051;-75
2022/06/09 08:02:26;;;;;;;4.55;2.40;;;;;;;;;;5159688;27;20057;-76
2022/06/09 08:04:52;;;;;;;5.45;2.33;;;;;;;;;;5146025;27;20484;-76
2022/06/09 08:07:18;;;;;;;6.60;2.67;;;;;;;;;;5164238;27;21126;-76
2022/06/09 08:09:45;;;;;;;6.88;2.75;;;;;;;;;;5154499;27;20050;-76
2022/06/09 08:12:11;;;;;;;8.77;2.58;;;;;;;;;;5167748;27;20138;-76
2022/06/09 08:14:38;;;;;;;6.07;2.60;;;;;;;;;;5126238;27;20055;-76
2022/06/09 08:17:05;;;;;;;8.05;2.80;;;;;;;;;;5143574;27;20089;-76
2022/06/09 08:19:31;;;;;;;8.50;2.97;;;;;;;;;;5146199;27;20055;-75
2022/06/09 08:21:58;;;;;;;8.70;2.90;;;;;;;;;;5133652;27;20055;-76
2022/06/09 08:24:24;;;;;;;9.90;2.42;;;;;;;;;;5135247;27;20084;-76
2022/06/09 08:26:51;;;;;;;5.97;2.30;;;;;;;;;;5128754;27;20059;-76
2022/06/09 08:29:23;;;;;;;7.75;2.33;;;;;;;;;;5145284;27;20781;-76
2022/06/09 08:31:49;;;;;;;6.93;2.33;;;;;;;;;;5133154;27;20162;-75
2022/06/09 08:34:16;;;;;;;5.57;2.25;;;;;;;;;;5148716;27;20050;-76
2022/06/09 08:36:42;;;;;;;7.55;2.10;;;;;;;;;;5131707;27;20047;-76
2022/06/09 08:39:09;;;;;;;8.60;2.50;;;;;;;;;;5125102;27;20191;-75
2022/06/09 08:41:58;;;;;;;9.20;2.47;;;;;;;;;;5153201;27;20057;-76
2022/06/09 08:44:25;;;;;;;;;;;;;;;;;;5148395;27;20096;-76
2022/06/09 08:46:55;;;;;;;8.30;1.95;;;;;;;;;;5137503;27;42959;-77
2022/06/09 08:49:25;;;;;;;11.55;2.42;;;;;;;;;;5135222;27;20079;-76
2022/06/09 08:51:52;;;;;;;7.03;2.00;;;;;;;;;;5130618;27;20146;-76
2022/06/09 08:54:31;;;;;;;8.25;1.73;;;;;;;;;;5132769;27;20066;-75
2022/06/09 08:57:01;;;;;;;5.07;1.80;;;;;;;;;;5154977;27;20672;-76
2022/06/09 08:59:30;;;;;;;6.72;1.70;;;;;;;;;;5130161;27;20074;-76
2022/06/09 09:02:01;;;;;;;7.57;1.73;;;;;;;;;;5160307;27;20058;-77
2022/06/09 09:04:33;;;;;;;5.65;1.48;;;;;;;;;;5125465;27;20403;-77
2022/06/09 09:07:01;;;;;;;8.73;1.90;;;;;;;;;;5147792;27;20086;-76
2022/06/09 09:09:28;;;;;;;4.78;1.35;;;;;;;;;;5128071;27;20233;-76
2022/06/09 09:11:58;;;;;;;5.15;1.38;;;;;;;;;;5160349;27;20877;-77
2022/06/09 09:14:28;;;;;;;8.38;1.42;;;;;;;;;;5129386;27;20058;-76
2022/06/09 09:16:58;;;;;;;4.55;1.00;;;;;;;;;;5128626;27;20051;-76
2022/06/09 09:19:27;;;;;;;8.82;1.58;;;;;;;;;;5138368;27;20082;-77
2022/06/09 09:22:02;;;;;;;4.60;1.15;;;;;;;;;;5132371;27;20525;-76
2022/06/09 09:24:29;;;;;;;7.30;1.25;;;;;;;;;;5147684;27;20534;-77
2022/06/09 09:27:02;;;;;;;5.97;1.60;;;;;;;;;;5137452;27;20142;-77
2022/06/09 09:29:30;;;;;;;5.95;1.75;;;;;;;;;;5160981;27;20055;-77
2022/06/09 09:31:57;;;;;;;7.55;1.40;;;;;;;;;;5158477;27;20050;-77
2022/06/09 09:34:29;;;;;;;4.93;1.30;;;;;;;;;;5151045;27;20816;-77
2022/06/09 09:37:15;;;;;;;7.55;1.42;;;;;;;;;;5132490;27;20038;-77
2022/06/09 09:39:47;;;;;;;4.43;1.10;;;;;;;;;;5137295;27;20676;-77
2022/06/09 09:42:16;;;;;;;7.57;1.23;;;;;;;;;;5151996;27;20106;-77
2022/06/09 09:44:57;;;;;;;5.82;1.60;;;;;;;;;;5117802;27;20179;-77
2022/06/09 09:47:24;;;;;;;6.90;1.45;;;;;;;;;;5145320;27;20133;-78
2022/06/09 09:49:51;;;;;;;5.85;1.30;;;;;;;;;;5127860;27;20061;-77
2022/06/09 09:52:33;;;;;;;8.07;1.52;;;;;;;;;;5151824;27;20141;-77
2022/06/09 09:54:59;;;;;;;5.00;1.27;;;;;;;;;;5137095;27;20050;-77
2022/06/09 09:57:28;;;;;;;8.15;1.40;;;;;;;;;;5134668;27;20065;-77
2022/06/09 09:59:56;;;;;;;3.85;1.05;;;;;;;;;;5151295;27;20051;-75
2022/06/09 10:08:38;;;;;;;5.13;1.60;;;;;;;;;;5154795;27;20054;-76
2022/06/09 10:13:59;;;;;;;6.80;1.20;;;;;;;;;;5168964;27;20225;-76
2022/06/09 10:16:48;;;;;;;6.65;1.30;;;;;;;;;;5152558;27;20585;-76
2022/06/09 10:19:33;;;;;;;8.07;1.48;;;;;;;;;;5144419;27;20505;-76
2022/06/09 10:22:14;;;;;;;9.07;1.52;;;;;;;;;;5136369;27;20081;-76
2022/06/09 10:25:01;;;;;;;7.75;1.30;;;;;;;;;;5167005;27;20558;-76
2022/06/09 10:27:37;;;;;;;5.00;1.10;;;;;;;;;;5146595;27;20129;-77
2022/06/09 10:30:08;;;;;;;6.07;1.50;;;;;;;;;;5150775;27;20418;-76
2022/06/09 10:32:44;;;;;;;7.15;1.27;;;;;;;;;;5148958;27;20056;-77
2022/06/09 10:35:18;;;;;;;5.05;1.15;;;;;;;;;;5146392;27;20138;-76
2022/06/09 10:38:02;;;;;;;4.50;0.98;;;;;;;;;;5149839;27;20489;-77
2022/06/09 10:40:33;;;;;;;4.80;1.27;;;;;;;;;;5169119;27;20198;-77
2022/06/09 10:42:59;;;;;;;4.07;1.02;;;;;;;;;;5139731;27;20130;-77
2022/06/09 10:45:37;;;;;;;7.10;1.45;;;;;;;;;;5129300;27;20055;-77
2022/06/09 10:57:05;;;;;;;6.03;1.20;;;;;;;;;;5148123;27;20051;-77
2022/06/09 10:59:31;;;;;;;4.18;1.10;;;;;;;;;;5125729;27;20054;-77
2022/06/09 11:01:58;;;;;;;5.05;1.17;;;;;;;;;;5145151;27;20050;-77
2022/06/09 11:04:27;;;;;;;6.45;1.17;;;;;;;;;;5140982;27;20512;-77
2022/06/09 11:07:13;;;;;;;5.25;1.27;;;;;;;;;;5144674;27;20138;-77
2022/06/09 11:09:39;;;;;;;4.70;1.30;;;;;;;;;;5154781;27;20051;-77
2022/06/09 11:12:34;;;;;;;5.25;1.10;;;;;;;;;;5151844;27;21105;-77
2022/06/09 11:15:07;;;;;;;8.32;1.45;;;;;;;;;;5131927;27;20434;-77
2022/06/09 11:17:40;;;;;;;5.13;1.45;;;;;;;;;;5160909;27;20051;-77
2022/06/09 11:20:12;;;;;;;5.65;1.30;;;;;;;;;;5167671;27;20171;-77
2022/06/09 11:22:42;;;;;;;4.13;1.00;;;;;;;;;;5131425;27;20054;-77
2022/06/09 11:25:22;;;;;;;5.18;1.10;;;;;;;;;;5153260;27;20057;-77
2022/06/09 11:28:23;;;;;;;4.82;1.20;;;;;;;;;;5146269;27;20055;-78
2022/06/09 11:30:49;;;;;;;6.75;1.25;;;;;;;;;;5059413;28;20060;-78
2022/06/09 11:33:35;;;;;;;6.15;1.40;;;;;;;;;;5127075;27;20055;-78
2022/06/09 11:36:08;;;;;;;7.72;1.52;;;;;;;;;;5152411;27;20586;-78
2022/06/09 11:38:44;;;;;;;7.35;1.50;;;;;;;;;;5138093;27;20077;-78
2022/06/09 11:41:20;;;;;;;8.85;1.75;;;;;;;;;;5131078;27;20058;-78
2022/06/09 11:44:18;;;;;;;5.53;1.40;;;;;;;;;;5133488;27;20518;-78
2022/06/09 11:46:45;;;;;;;6.25;1.60;;;;;;;;;;5135671;27;20791;-78
2022/06/09 11:49:15;;;;;;;7.45;1.42;;;;;;;;;;5130323;27;20478;-78
2022/06/09 11:51:42;;;;;;;6.38;1.50;;;;;;;;;;5132087;27;20079;-78
2022/06/09 11:54:28;;;;;;;6.72;1.63;;;;;;;;;;5128383;27;20126;-78
2022/06/09 11:57:13;;;;;;;5.47;1.60;;;;;;;;;;5132126;27;20055;-79
2022/06/09 11:59:55;;;;;;;8.88;1.38;;;;;;;;;;5127508;27;20179;-78
2022/06/09 12:02:28;;;;;;;4.70;1.20;;;;;;;;;;5143614;27;20055;-79
2022/06/09 12:05:06;;;;;;;8.77;1.38;;;;;;;;;;5161970;27;20058;-79
2022/06/09 12:07:38;;;;;;;6.97;1.30;;;;;;;;;;5167379;27;20074;-79
2022/06/09 12:10:12;;;;;;;7.05;1.50;;;;;;;;;;5142320;27;20055;-79
2022/06/09 12:12:58;;;;;;;7.00;1.55;;;;;;;;;;5148934;27;20055;-79
2022/06/09 12:15:33;;;;;;;5.72;1.38;;;;;;;;;;5121763;27;20057;-79
2022/06/09 12:18:01;;;;;;;8.88;1.58;;;;;;;;;;5135018;27;20556;-80
2022/06/09 12:20:32;;;;;;;7.55;1.42;;;;;;;;;;5133441;27;20051;-78
2022/06/09 12:23:00;;;;;;;5.72;1.35;;;;;;;;;;5139587;27;20051;-80
2022/06/09 12:25:32;;;;;;;6.18;1.38;;;;;;;;;;5170940;27;20149;-79
2022/06/09 12:27:59;;;;;;;5.78;1.63;;;;;;;;;;5158073;27;20063;-79
2022/06/09 12:30:37;;;;;;;5.50;1.58;;;;;;;;;;5161733;27;20135;-82
2022/06/09 12:33:25;;;;;;;5.20;1.23;;;;;;;;;;5153639;27;20582;-82
2022/06/09 12:35:53;;;;;;;6.13;1.45;;;;;;;;;;5167919;27;20042;-80
2022/06/09 12:38:26;;;;;;;5.50;1.27;;;;;;;;;;5156988;27;20051;-81
2022/06/09 12:40:54;;;;;;;5.88;1.38;;;;;;;;;;5171715;27;20851;-80
2022/06/09 12:43:27;;;;;;;6.85;1.60;;;;;;;;;;5146959;27;20083;-80
2022/06/09 12:46:02;;;;;;;6.45;1.40;;;;;;;;;;5158562;27;20053;-82
2022/06/09 12:48:33;;;;;;;7.75;1.40;;;;;;;;;;5146045;27;20051;-82
2022/06/09 12:51:01;;;;;;;7.30;1.77;;;;;;;;;;5141758;27;20103;-83
2022/06/09 12:53:31;;;;;;;6.75;1.65;;;;;;;;;;5159865;27;20519;-83
2022/06/09 12:56:00;;;;;;;5.75;1.50;;;;;;;;;;5142686;27;20055;-81
2022/06/09 12:58:31;;;;;;;6.32;1.65;;;;;;;;;;5179560;27;20135;-80
2022/06/09 13:01:00;;;;;;;7.68;1.80;;;;;;;;;;5168989;27;20090;-83
2022/06/09 13:03:29;;;;;;;7.70;1.60;;;;;;;;;;5161785;27;20246;-80
2022/06/09 13:05:57;;;;;;;6.15;1.60;;;;;;;;;;5178486;27;20050;-80
2022/06/09 13:08:25;;;;;;;8.23;1.92;;;;;;;;;;5154561;27;20640;-82
2022/06/09 13:10:54;;;;;;;8.98;1.30;;;;;;;;;;5164130;27;20066;-84
2022/06/09 13:13:26;;;;;;;7.97;1.60;;;;;;;;;;5151257;27;20753;-83
2022/06/09 13:15:55;;;;;;;6.65;1.50;;;;;;;;;;5176483;27;20394;-81
2022/06/09 13:18:39;;;;;;;5.57;1.40;;;;;;;;;;5164284;27;20099;-83
2022/06/09 13:21:13;;;;;;;7.32;1.75;;;;;;;;;;5146090;27;20059;-80
2022/06/09 13:23:41;;;;;;;7.97;1.77;;;;;;;;;;5168603;27;20071;-84
2022/06/09 13:26:12;;;;;;;6.45;1.45;;;;;;;;;;5162498;27;20114;-84
2022/06/09 13:28:43;;;;;;;7.60;1.60;;;;;;;;;;5148542;27;20133;-83
2022/06/09 13:31:30;;;;;;;6.63;1.67;;;;;;;;;;5153549;27;20924;-83
2022/06/09 13:34:02;;;;;;;9.77;1.83;;;;;;;;;;5153121;27;20046;-82
2022/06/09 13:36:42;;;;;;;9.07;1.70;;;;;;;;;;5178884;27;20143;-82
2022/06/09 13:39:24;;;;;;;8.30;1.90;;;;;;;;;;5146043;27;20078;-82
2022/06/09 13:41:51;;;;;;;5.32;1.70;;;;;;;;;;5144914;27;20207;-82
2022/06/09 13:44:20;;;;;;;6.85;1.33;;;;;;;;;;5151367;27;20039;-82
2022/06/09 13:47:13;;;;;;;7.57;1.88;;;;;;;;;;5151115;27;20055;-81
2022/06/09 13:49:44;;;;;;;6.18;1.70;;;;;;;;;;5148722;27;20051;-81
2022/06/09 13:52:31;;;;;;;9.48;1.70;;;;;;;;;;5154982;27;20114;-82
2022/06/09 13:54:58;;;;;;;8.20;1.83;;;;;;;;;;5157881;27;20110;-82
2022/06/09 13:57:35;;;;;;;6.97;1.73;;;;;;;;;;5148578;27;20046;-82
2022/06/09 14:00:01;;;;;;;;;;;;;;;;;;5158032;27;20050;-82
2022/06/09 14:02:39;;;;;;;8.35;1.70;;;;;;;;;;5163561;27;45813;-82
2022/06/09 14:05:06;;;;;;;8.63;1.80;;;;;;;;;;5154234;27;20033;-82
2022/06/09 14:07:32;;;;;;;8.77;1.80;;;;;;;;;;5148478;27;20303;-82
2022/06/09 14:09:59;;;;;;;6.70;2.00;;;;;;;;;;5155397;27;20103;-82
2022/06/09 14:12:26;;;;;;;8.23;1.70;;;;;;;;;;5182546;27;20050;-81
2022/06/09 14:14:52;;;;;;;7.30;1.50;;;;;;;;;;5159016;27;20059;-81
2022/06/09 14:17:21;;;;;;;8.10;1.73;;;;;;;;;;5170289;27;20055;-82
2022/06/09 14:19:47;;;;;;;6.68;1.73;;;;;;;;;;5159530;27;20259;-82
2022/06/09 14:22:14;;;;;;;8.30;1.73;;;;;;;;;;5159819;27;20065;-82
2022/06/09 14:24:40;;;;;;;7.32;1.45;;;;;;;;;;5153492;27;20087;-81
2022/06/09 14:27:07;;;;;;;9.10;1.83;;;;;;;;;;5164809;27;20113;-81
2022/06/09 14:29:34;;;;;;;8.52;1.88;;;;;;;;;;5150229;27;20050;-81
2022/06/09 14:32:01;;;;;;;9.13;1.70;;;;;;;;;;5149121;27;20084;-82
2022/06/09 14:34:27;;;;;;;10.13;1.80;;;;;;;;;;5146719;27;20062;-82
2022/06/09 14:36:54;;;;;;;6.97;1.73;;;;;;;;;;5146349;27;20027;-81
2022/06/09 14:39:20;;;;;;;6.22;1.65;;;;;;;;;;5177791;27;20114;-81
2022/06/09 14:41:47;;;;;;;8.88;1.77;;;;;;;;;;5157853;27;20189;-81
2022/06/09 14:44:13;;;;;;;10.73;1.98;;;;;;;;;;5151955;27;20253;-81
2022/06/09 14:46:41;;;;;;;8.00;1.75;;;;;;;;;;5157235;27;20051;-81
2022/06/09 14:49:11;;;;;;;6.43;1.70;;;;;;;;;;5165045;27;22013;-82
2022/06/09 14:51:37;;;;;;;10.25;2.22;;;;;;;;;;5158168;27;20530;-81
2022/06/09 14:54:04;;;;;;;6.88;1.55;;;;;;;;;;5157356;27;20057;-81
2022/06/09 14:56:34;;;;;;;11.27;1.83;;;;;;;;;;5183253;27;20085;-80
2022/06/09 14:59:00;;;;;;;5.63;1.65;;;;;;;;;;5147202;27;20422;-81
2022/06/09 15:01:27;;;;;;;7.45;1.60;;;;;;;;;;5145838;27;20118;-81
2022/06/09 15:03:53;;;;;;;7.28;1.50;;;;;;;;;;5159678;27;20035;-82
2022/06/09 15:06:20;;;;;;;7.57;1.40;;;;;;;;;;5147575;27;20111;-81
2022/06/09 15:08:48;;;;;;;6.95;1.70;;;;;;;;;;5175445;27;20077;-80
2022/06/09 15:11:16;;;;;;;7.35;1.50;;;;;;;;;;5146201;27;21192;-81
2022/06/09 15:13:42;;;;;;;6.25;1.50;;;;;;;;;;5156078;27;20063;-81
2022/06/09 15:16:09;;;;;;;8.50;1.75;;;;;;;;;;5166364;27;21031;-80